Time;durP1;ratioP1;P1;durP2;ratioP2;P2;SDS_P1;SDS_P2;PMS_P1;PMS_P2;Temp;Humidity;BMP_temperature;BMP_pressure;BME280_temperature;BME280_humidity;BME280_pressure;Samples;Min_cycle;Max_cycle;Signal;HPM_P1;HPM_P2
2022/06/11 00:00:09;;;;;;;1.20;1.10;;;16.00;99.90;;;;;;5068160;28;20226;-66
2022/06/11 00:02:36;;;;;;;0.90;0.90;;;16.00;99.90;;;;;;5070095;28;20701;-66
2022/06/11 00:05:03;;;;;;;1.33;1.23;;;16.00;99.90;;;;;;5070313;28;20207;-66
2022/06/11 00:07:30;;;;;;;0.90;0.90;;;16.00;99.90;;;;;;5065164;28;20203;-68
2022/06/11 00:09:58;;;;;;;0.80;0.80;;;15.90;99.90;;;;;;5064314;28;20307;-64
2022/06/11 00:12:26;;;;;;;0.85;0.85;;;16.10;99.90;;;;;;5068468;28;20202;-67
2022/06/11 00:14:55;;;;;;;1.10;1.00;;;16.00;99.90;;;;;;5068675;28;20284;-67
2022/06/11 00:17:24;;;;;;;0.75;0.75;;;16.00;99.90;;;;;;5068392;28;20228;-65
2022/06/11 00:19:52;;;;;;;1.15;1.05;;;15.90;99.90;;;;;;5065199;28;20701;-65
2022/06/11 00:22:21;;;;;;;0.93;0.93;;;15.90;99.90;;;;;;5066248;28;20215;-66
2022/06/11 00:24:48;;;;;;;0.90;0.90;;;15.90;99.90;;;;;;5077067;28;20199;-68
2022/06/11 00:27:17;;;;;;;1.10;1.10;;;15.90;99.90;;;;;;5080903;28;20227;-67
2022/06/11 00:29:45;;;;;;;0.85;0.85;;;15.90;99.90;;;;;;5084956;28;20237;-67
2022/06/11 00:32:13;;;;;;;1.05;1.05;;;15.80;99.90;;;;;;5080793;28;20826;-65
2022/06/11 00:34:41;;;;;;;0.90;0.90;;;15.80;99.90;;;;;;5073272;28;20204;-67
2022/06/11 00:37:08;;;;;;;1.17;1.00;;;15.80;99.90;;;;;;5074702;28;20199;-68
2022/06/11 00:39:37;;;;;;;1.05;1.05;;;15.80;99.90;;;;;;5072832;28;20705;-65
2022/06/11 00:42:08;;;;;;;1.08;1.08;;;15.80;99.90;;;;;;5064674;28;20269;-65
2022/06/11 00:44:36;;;;;;;0.90;0.90;;;15.80;99.90;;;;;;5082863;28;20268;-69
2022/06/11 00:47:07;;;;;;;1.02;1.00;;;15.80;99.90;;;;;;5080336;28;20779;-67
2022/06/11 00:49:39;;;;;;;0.80;0.80;;;15.70;99.90;;;;;;5075976;28;20266;-66
2022/06/11 00:52:19;;;;;;;0.75;0.75;;;15.70;99.90;;;;;;5071223;28;20191;-66
2022/06/11 00:54:49;;;;;;;0.90;0.85;;;15.70;99.90;;;;;;5060204;28;20234;-66
2022/06/11 00:57:17;;;;;;;0.90;0.90;;;15.70;99.90;;;;;;5070065;28;20195;-66
2022/06/11 00:59:49;;;;;;;1.05;1.05;;;15.40;99.90;;;;;;5064152;28;20315;-65
2022/06/11 01:02:16;;;;;;;0.80;0.80;;;15.60;99.90;;;;;;5066801;28;20874;-65
2022/06/11 01:04:48;;;;;;;1.00;1.00;;;15.60;99.90;;;;;;5063309;28;20315;-66
2022/06/11 01:07:32;;;;;;;1.10;1.10;;;15.50;99.90;;;;;;5066697;28;20245;-66
2022/06/11 01:10:18;;;;;;;0.90;0.90;;;15.40;99.90;;;;;;5062345;28;20346;-66
2022/06/11 01:13:10;;;;;;;0.93;0.93;;;15.40;99.90;;;;;;5065980;28;20207;-66
2022/06/11 01:15:44;;;;;;;1.23;1.23;;;15.30;99.90;;;;;;5038558;28;20366;-65
2022/06/11 01:18:22;;;;;;;1.30;1.20;;;15.30;99.90;;;;;;5047628;28;20210;-67
2022/06/11 01:20:56;;;;;;;1.35;1.27;;;15.20;99.90;;;;;;5051992;28;20208;-64
2022/06/11 01:24:01;;;;;;;1.00;1.00;;;15.10;99.90;;;;;;5050005;28;20983;-66
2022/06/11 01:26:53;;;;;;;0.90;0.90;;;15.10;99.90;;;;;;5052315;28;20211;-66
2022/06/11 01:29:48;;;;;;;0.93;0.93;;;15.10;99.90;;;;;;5050671;28;20358;-65
2022/06/11 01:32:21;;;;;;;0.95;0.93;;;15.10;99.90;;;;;;5048743;28;20210;-68
2022/06/11 01:34:58;;;;;;;0.90;0.90;;;15.00;99.90;;;;;;5071739;28;20570;-67
2022/06/11 01:37:30;;;;;;;1.45;1.35;;;15.00;99.90;;;;;;5073704;28;20252;-67
2022/06/11 01:40:02;;;;;;;1.02;1.02;;;15.00;99.90;;;;;;5073401;28;20309;-67
2022/06/11 01:42:34;;;;;;;1.17;1.10;;;15.00;99.90;;;;;;5073313;28;20233;-66
2022/06/11 01:45:12;;;;;;;1.13;1.13;;;15.00;99.90;;;;;;5072373;28;20299;-68
2022/06/11 01:47:39;;;;;;;0.85;0.85;;;15.00;99.90;;;;;;5066105;28;20570;-64
2022/06/11 01:50:08;;;;;;;0.82;0.82;;;15.00;99.90;;;;;;5073640;28;20309;-65
2022/06/11 01:53:01;;;;;;;0.90;0.90;;;14.90;99.90;;;;;;5073694;28;20204;-66
2022/06/11 01:55:44;;;;;;;1.00;0.97;;;15.00;99.90;;;;;;5064722;28;20243;-64
2022/06/11 01:58:32;;;;;;;0.90;0.90;;;15.10;99.90;;;;;;5074862;28;20855;-66
2022/06/11 02:01:07;;;;;;;0.95;0.95;;;15.10;99.90;;;;;;5072071;28;20195;-66
2022/06/11 02:03:41;;;;;;;1.43;1.10;;;15.10;99.90;;;;;;5071772;28;20245;-65
2022/06/11 02:06:18;;;;;;;0.80;0.80;;;15.10;99.90;;;;;;5075306;28;20241;-64
2022/06/11 02:08:56;;;;;;;0.98;0.98;;;15.10;99.90;;;;;;5074406;28;20269;-66
2022/06/11 02:11:31;;;;;;;1.08;1.08;;;15.10;99.90;;;;;;5072230;28;20206;-66
2022/06/11 02:14:06;;;;;;;1.00;1.00;;;15.00;99.90;;;;;;5074244;28;20294;-66
2022/06/11 02:16:38;;;;;;;1.07;1.07;;;15.00;99.90;;;;;;5064463;28;20285;-66
2022/06/11 02:19:08;;;;;;;1.05;1.05;;;15.00;99.90;;;;;;5073984;28;20714;-66
2022/06/11 02:21:39;;;;;;;0.85;0.85;;;15.20;99.90;;;;;;5065874;28;20302;-65
2022/06/11 02:24:11;;;;;;;1.00;1.00;;;14.90;99.90;;;;;;5076653;28;20223;-66
2022/06/11 02:26:43;;;;;;;0.90;0.90;;;14.80;99.90;;;;;;5072387;28;20203;-66
2022/06/11 02:29:12;;;;;;;0.88;0.88;;;14.80;99.90;;;;;;5074316;28;20227;-65
2022/06/11 02:31:46;;;;;;;0.77;0.77;;;14.70;99.90;;;;;;5074278;28;20234;-66
2022/06/11 02:34:16;;;;;;;1.30;1.20;;;14.80;99.90;;;;;;5075372;28;20290;-66
2022/06/11 02:36:49;;;;;;;1.00;1.00;;;14.70;99.90;;;;;;5075238;28;20759;-67
2022/06/11 02:39:16;;;;;;;1.20;1.10;;;14.70;99.90;;;;;;5066708;28;20269;-65
2022/06/11 02:41:43;;;;;;;1.30;1.20;;;14.60;99.90;;;;;;5073815;28;20203;-67
2022/06/11 02:44:10;;;;;;;1.10;1.10;;;14.60;99.90;;;;;;5089762;28;20207;-68
2022/06/11 02:46:43;;;;;;;1.10;1.10;;;14.60;99.90;;;;;;5083826;28;20276;-66
2022/06/11 02:49:14;;;;;;;0.95;0.95;;;14.50;99.90;;;;;;5073629;28;20265;-66
2022/06/11 02:51:42;;;;;;;1.13;0.90;;;14.40;99.90;;;;;;5072890;28;20325;-67
2022/06/11 02:54:09;;;;;;;1.60;1.20;;;14.40;99.90;;;;;;5069923;28;20282;-69
2022/06/11 02:56:36;;;;;;;0.90;0.90;;;14.30;99.90;;;;;;5072659;28;20649;-66
2022/06/11 02:59:04;;;;;;;1.20;1.10;;;14.30;99.90;;;;;;5074499;28;20219;-66
2022/06/11 03:01:32;;;;;;;1.57;1.40;;;14.40;99.90;;;;;;5074587;28;20272;-66
2022/06/11 03:04:01;;;;;;;0.93;0.93;;;14.40;99.90;;;;;;5075267;28;20310;-65
2022/06/11 03:06:29;;;;;;;1.00;1.00;;;14.40;99.90;;;;;;5073657;28;20227;-67
2022/06/11 03:08:57;;;;;;;1.00;0.98;;;14.30;99.90;;;;;;5073071;28;20340;-66
2022/06/11 03:11:25;;;;;;;0.90;0.90;;;14.20;99.90;;;;;;5071756;28;20243;-66
2022/06/11 03:13:52;;;;;;;1.00;1.00;;;14.20;99.90;;;;;;5071385;28;20716;-65
2022/06/11 03:16:21;;;;;;;0.90;0.90;;;14.20;99.90;;;;;;5071247;28;20261;-67
2022/06/11 03:18:48;;;;;;;0.70;0.70;;;14.30;99.90;;;;;;5071685;28;20234;-65
2022/06/11 03:21:16;;;;;;;0.93;0.93;;;14.30;99.90;;;;;;5071700;28;20294;-67
2022/06/11 03:23:43;;;;;;;0.80;0.80;;;14.30;99.90;;;;;;5071751;28;20230;-66
2022/06/11 03:26:11;;;;;;;0.90;0.90;;;14.30;99.90;;;;;;5070792;28;20728;-66
2022/06/11 03:28:38;;;;;;;0.90;0.90;;;14.30;99.90;;;;;;5070916;28;20322;-67
2022/06/11 03:31:06;;;;;;;1.00;0.90;;;14.30;99.90;;;;;;5071682;28;20286;-66
2022/06/11 03:33:34;;;;;;;1.02;1.02;;;14.30;99.90;;;;;;5071432;28;20221;-66
2022/06/11 03:36:02;;;;;;;0.80;0.80;;;14.30;99.90;;;;;;5070706;28;20206;-66
2022/06/11 03:38:31;;;;;;;0.80;0.80;;;14.40;99.90;;;;;;5071244;28;20310;-66
2022/06/11 03:40:58;;;;;;;1.10;1.00;;;14.40;99.90;;;;;;5071677;28;20207;-66
2022/06/11 03:43:25;;;;;;;0.98;0.98;;;14.40;99.90;;;;;;5071574;28;20227;-64
2022/06/11 03:45:52;;;;;;;0.83;0.83;;;14.40;99.90;;;;;;5070881;28;20294;-66
2022/06/11 03:48:19;;;;;;;0.82;0.82;;;14.40;99.90;;;;;;5075143;28;20579;-67
2022/06/11 03:50:47;;;;;;;1.07;1.07;;;14.50;99.90;;;;;;5074074;28;20218;-65
2022/06/11 03:53:15;;;;;;;0.70;0.70;;;14.40;99.90;;;;;;5072065;28;20261;-65
2022/06/11 03:55:44;;;;;;;1.20;1.10;;;14.40;99.90;;;;;;5070831;28;20306;-67
2022/06/11 03:58:12;;;;;;;0.90;0.88;;;14.50;99.90;;;;;;5071969;28;20207;-67
2022/06/11 04:03:25;;;;;;;0.90;0.90;;;14.40;99.90;;;;;;5071361;28;20221;-65
2022/06/11 04:05:56;;;;;;;2.13;1.23;;;14.50;99.90;;;;;;5071066;28;20210;-65
2022/06/11 04:08:24;;;;;;;0.80;0.80;;;14.50;99.90;;;;;;5071221;28;20310;-65
2022/06/11 04:10:56;;;;;;;1.07;0.97;;;14.60;99.90;;;;;;5069454;28;20211;-66
2022/06/11 04:13:25;;;;;;;0.80;0.80;;;14.60;99.90;;;;;;5071035;28;20867;-65
2022/06/11 04:15:53;;;;;;;0.70;0.70;;;14.60;99.90;;;;;;5070912;28;20207;-65
2022/06/11 04:18:27;;;;;;;0.90;0.90;;;14.50;99.90;;;;;;5070835;28;20219;-66
2022/06/11 04:20:55;;;;;;;0.70;0.70;;;14.50;99.90;;;;;;5071049;28;20310;-66
2022/06/11 04:23:24;;;;;;;1.00;1.00;;;14.40;99.90;;;;;;5071056;28;20315;-65
2022/06/11 04:25:52;;;;;;;0.95;0.95;;;14.50;99.90;;;;;;5070361;28;20290;-66
2022/06/11 04:28:19;;;;;;;0.80;0.80;;;14.50;99.90;;;;;;5068846;28;20230;-66
2022/06/11 04:30:46;;;;;;;0.80;0.80;;;14.40;99.90;;;;;;5071933;28;20207;-66
2022/06/11 04:33:13;;;;;;;0.83;0.83;;;14.40;99.90;;;;;;5075791;28;20289;-65
2022/06/11 04:35:40;;;;;;;0.90;0.90;;;14.50;99.90;;;;;;5075834;28;20290;-66
2022/06/11 04:38:07;;;;;;;0.80;0.80;;;14.50;99.90;;;;;;5074857;28;20202;-67
2022/06/11 04:40:34;;;;;;;0.88;0.88;;;14.60;99.90;;;;;;5066634;28;20796;-66
2022/06/11 04:43:02;;;;;;;0.80;0.80;;;14.70;99.90;;;;;;5075051;28;20571;-66
2022/06/11 04:45:29;;;;;;;0.80;0.80;;;14.70;99.90;;;;;;5074025;28;20657;-66
2022/06/11 04:47:56;;;;;;;0.80;0.80;;;14.70;99.90;;;;;;5074556;28;20294;-66
2022/06/11 04:50:23;;;;;;;0.83;0.83;;;14.80;99.90;;;;;;5075166;28;20210;-65
2022/06/11 04:52:50;;;;;;;1.60;1.07;;;14.90;99.90;;;;;;5075914;28;20249;-64
2022/06/11 04:55:18;;;;;;;0.90;0.90;;;15.00;99.90;;;;;;5075303;28;20294;-68
2022/06/11 04:57:46;;;;;;;1.00;1.00;;;15.20;99.90;;;;;;5080582;28;20226;-65
2022/06/11 05:00:18;;;;;;;0.90;0.90;;;15.20;99.90;;;;;;5086918;28;20362;-66
2022/06/11 05:02:45;;;;;;;1.13;1.02;;;15.30;99.90;;;;;;5090479;28;20203;-65
2022/06/11 05:05:13;;;;;;;0.90;0.90;;;15.40;99.90;;;;;;5081477;28;20279;-65
2022/06/11 05:07:40;;;;;;;0.80;0.80;;;15.50;99.90;;;;;;5074377;28;20208;-66
2022/06/11 05:10:09;;;;;;;0.70;0.70;;;15.60;99.90;;;;;;5072112;28;20315;-65
2022/06/11 05:12:36;;;;;;;1.05;1.02;;;15.80;99.90;;;;;;5074786;28;20207;-66
2022/06/11 05:15:03;;;;;;;0.90;0.90;;;15.90;99.90;;;;;;5074687;28;20298;-66
2022/06/11 05:17:32;;;;;;;0.90;0.90;;;16.10;99.90;;;;;;5075080;28;20196;-65
2022/06/11 05:19:59;;;;;;;1.10;1.10;;;16.30;99.90;;;;;;5074078;28;20318;-65
2022/06/11 05:22:26;;;;;;;0.75;0.75;;;16.50;99.90;;;;;;5074650;28;20195;-68
2022/06/11 05:24:53;;;;;;;0.90;0.90;;;16.60;99.90;;;;;;5074407;28;20223;-68
2022/06/11 05:27:22;;;;;;;0.95;0.95;;;16.70;99.90;;;;;;5074403;28;20209;-64
2022/06/11 05:29:52;;;;;;;0.70;0.70;;;16.90;99.90;;;;;;5076558;28;20229;-69
2022/06/11 05:32:20;;;;;;;1.05;1.05;;;17.00;99.90;;;;;;5076653;28;20231;-69
2022/06/11 05:34:49;;;;;;;0.90;0.90;;;17.10;99.90;;;;;;5074572;28;20199;-66
2022/06/11 05:37:17;;;;;;;0.90;0.90;;;17.30;99.90;;;;;;5074519;28;20638;-66
2022/06/11 05:39:46;;;;;;;0.60;0.60;;;17.40;99.90;;;;;;5074277;28;20654;-68
2022/06/11 05:42:14;;;;;;;0.85;0.85;;;17.50;99.90;;;;;;5074074;28;20203;-66
2022/06/11 05:44:42;;;;;;;1.00;1.00;;;17.70;99.90;;;;;;5065057;28;20684;-66
2022/06/11 05:47:13;;;;;;;0.90;0.90;;;17.90;99.90;;;;;;5073961;28;20286;-67
2022/06/11 05:49:43;;;;;;;0.75;0.75;;;18.10;99.90;;;;;;5069879;28;20250;-66
2022/06/11 05:52:16;;;;;;;0.90;0.90;;;18.30;99.90;;;;;;5066650;28;20206;-67
2022/06/11 05:54:45;;;;;;;2.53;0.98;;;18.40;99.90;;;;;;5070004;28;20202;-66
2022/06/11 05:57:16;;;;;;;1.40;0.95;;;18.50;99.90;;;;;;5066380;28;20202;-67
2022/06/11 05:59:48;;;;;;;1.65;0.93;;;18.60;99.90;;;;;;5068810;28;20224;-68
2022/06/11 06:02:19;;;;;;;0.80;0.80;;;18.70;99.90;;;;;;5074539;28;20726;-65
2022/06/11 06:04:46;;;;;;;0.95;0.95;;;18.90;99.90;;;;;;5072863;28;20233;-65
2022/06/11 06:07:14;;;;;;;0.70;0.70;;;19.00;99.90;;;;;;5066148;28;20231;-67
2022/06/11 06:09:41;;;;;;;0.70;0.70;;;19.20;99.90;;;;;;5071587;28;20249;-66
2022/06/11 06:12:09;;;;;;;0.65;0.65;;;19.30;99.90;;;;;;5074717;28;20214;-65
2022/06/11 06:14:36;;;;;;;0.90;0.90;;;19.50;99.90;;;;;;5072103;28;20263;-66
2022/06/11 06:17:03;;;;;;;1.15;1.13;;;19.60;99.90;;;;;;5074296;28;20282;-65
2022/06/11 06:19:30;;;;;;;1.05;1.05;;;19.70;99.90;;;;;;5077364;28;21657;-66
2022/06/11 06:21:57;;;;;;;0.95;0.95;;;19.70;99.90;;;;;;5069864;28;20242;-67
2022/06/11 06:24:25;;;;;;;1.20;1.02;;;19.80;99.90;;;;;;5073352;28;20664;-66
2022/06/11 06:26:53;;;;;;;1.30;1.20;;;19.90;99.90;;;;;;5073706;28;20215;-66
2022/06/11 06:29:20;;;;;;;0.90;0.90;;;20.10;99.90;;;;;;5073286;28;20318;-66
2022/06/11 06:31:47;;;;;;;1.10;1.00;;;20.20;99.90;;;;;;5072635;28;20227;-69
2022/06/11 06:34:14;;;;;;;0.98;0.98;;;20.40;99.90;;;;;;5072974;28;20692;-67
2022/06/11 06:36:41;;;;;;;0.70;0.70;;;20.50;99.90;;;;;;5065730;28;20286;-66
2022/06/11 06:39:08;;;;;;;0.93;0.90;;;20.60;99.90;;;;;;5066546;28;20255;-67
2022/06/11 06:41:36;;;;;;;0.85;0.85;;;20.80;99.90;;;;;;5076982;28;20577;-66
2022/06/11 06:44:04;;;;;;;0.63;0.63;;;20.90;99.90;;;;;;5069656;28;20855;-66
2022/06/11 06:46:31;;;;;;;1.10;1.00;;;21.00;99.90;;;;;;5073699;28;20207;-66
2022/06/11 06:48:58;;;;;;;1.00;1.00;;;21.20;99.90;;;;;;5074507;28;20272;-67
2022/06/11 06:51:25;;;;;;;1.00;1.00;;;21.30;99.90;;;;;;5068752;28;20228;-66
2022/06/11 06:53:51;;;;;;;1.10;1.10;;;21.50;99.90;;;;;;5084953;28;20227;-67
2022/06/11 06:56:18;;;;;;;0.90;0.90;;;21.60;99.90;;;;;;5086187;28;20271;-67
2022/06/11 06:58:47;;;;;;;1.10;1.10;;;21.60;99.90;;;;;;5088600;28;20270;-68
2022/06/11 07:01:13;;;;;;;1.05;1.05;;;21.60;99.90;;;;;;5091410;28;20207;-66
2022/06/11 07:03:42;;;;;;;0.88;0.88;;;21.70;99.90;;;;;;5082667;28;20207;-68
2022/06/11 07:06:08;;;;;;;0.80;0.80;;;21.80;99.90;;;;;;5091889;28;20199;-68
2022/06/11 07:08:35;;;;;;;0.90;0.90;;;21.90;99.90;;;;;;5078236;28;20222;-66
2022/06/11 07:11:03;;;;;;;0.93;0.93;;;22.10;99.90;;;;;;5075406;28;20294;-66
2022/06/11 07:13:31;;;;;;;0.82;0.82;;;22.30;99.90;;;;;;5071553;28;20202;-68
2022/06/11 07:16:01;;;;;;;0.90;0.90;;;22.30;99.90;;;;;;5090048;28;20191;-67
2022/06/11 07:18:33;;;;;;;0.90;0.90;;;22.40;99.90;;;;;;5089318;28;20219;-67
2022/06/11 07:21:02;;;;;;;0.90;0.90;;;22.60;99.90;;;;;;5088009;28;20294;-68
2022/06/11 07:23:35;;;;;;;1.10;1.10;;;22.60;99.90;;;;;;5088986;28;20226;-65
2022/06/11 07:26:08;;;;;;;1.20;0.80;;;22.60;99.90;;;;;;5081357;28;20648;-66
2022/06/11 07:28:38;;;;;;;0.90;0.90;;;22.60;99.90;;;;;;5074167;28;20606;-66
2022/06/11 07:31:06;;;;;;;0.80;0.80;;;22.70;99.90;;;;;;5079947;28;20252;-68
2022/06/11 07:33:33;;;;;;;1.10;1.10;;;22.80;99.90;;;;;;5079558;28;20242;-67
2022/06/11 07:36:00;;;;;;;0.90;0.90;;;22.90;99.90;;;;;;5073983;28;20222;-66
2022/06/11 07:38:28;;;;;;;1.02;1.00;;;22.90;99.90;;;;;;5071974;28;20302;-65
2022/06/11 07:40:55;;;;;;;1.00;1.00;;;23.10;99.90;;;;;;5069284;28;20294;-66
2022/06/11 07:43:21;;;;;;;0.98;0.98;;;23.20;99.90;;;;;;5072907;28;20199;-65
2022/06/11 07:45:49;;;;;;;0.88;0.88;;;23.20;99.90;;;;;;5072836;28;20253;-65
2022/06/11 07:48:18;;;;;;;1.25;1.15;;;23.40;99.90;;;;;;5071573;28;20254;-67
2022/06/11 07:50:49;;;;;;;0.90;0.90;;;23.30;99.90;;;;;;5070262;28;20664;-66
2022/06/11 07:53:17;;;;;;;1.08;1.02;;;23.20;99.90;;;;;;5070903;28;20238;-66
2022/06/11 07:55:45;;;;;;;1.20;1.10;;;23.20;99.90;;;;;;5069430;28;20274;-66
2022/06/11 07:58:13;;;;;;;0.90;0.90;;;23.20;99.90;;;;;;5067428;28;20297;-65
2022/06/11 08:00:43;;;;;;;1.15;1.10;;;23.50;99.90;;;;;;5066584;28;20227;-67
2022/06/11 08:03:10;;;;;;;0.93;0.93;;;23.40;99.90;;;;;;5070621;28;20658;-64
2022/06/11 08:05:39;;;;;;;1.00;1.00;;;23.60;99.90;;;;;;5071593;28;20323;-67
2022/06/11 08:08:08;;;;;;;1.00;1.00;;;23.80;99.90;;;;;;5064058;28;20294;-64
2022/06/11 08:10:37;;;;;;;0.90;0.90;;;23.90;99.90;;;;;;5071586;28;20202;-66
2022/06/11 08:13:04;;;;;;;1.10;1.10;;;24.00;99.90;;;;;;5072422;28;20841;-65
2022/06/11 08:15:31;;;;;;;0.90;0.90;;;23.90;99.90;;;;;;5073781;28;20324;-64
2022/06/11 08:17:58;;;;;;;1.00;0.95;;;24.00;99.90;;;;;;5069198;28;20203;-64
2022/06/11 08:20:28;;;;;;;0.93;0.93;;;24.10;99.90;;;;;;5070747;28;20276;-66
2022/06/11 08:22:57;;;;;;;0.80;0.80;;;24.10;99.90;;;;;;5071806;28;20613;-65
2022/06/11 08:25:24;;;;;;;0.90;0.90;;;24.10;99.90;;;;;;5070111;28;20626;-68
2022/06/11 08:27:52;;;;;;;1.20;1.10;;;24.20;99.90;;;;;;5073516;28;20197;-66
2022/06/11 08:30:22;;;;;;;1.33;1.10;;;24.30;99.90;;;;;;5068618;28;20313;-66
2022/06/11 08:32:49;;;;;;;1.10;1.10;;;24.20;99.90;;;;;;5067266;28;20222;-66
2022/06/11 08:35:18;;;;;;;1.00;1.00;;;24.10;99.90;;;;;;5066097;28;20238;-66
2022/06/11 08:37:45;;;;;;;1.20;1.10;;;24.20;99.90;;;;;;5070139;28;20202;-67
2022/06/11 08:40:21;;;;;;;0.93;0.93;;;24.40;99.90;;;;;;5067893;28;20251;-66
2022/06/11 08:42:53;;;;;;;1.40;1.30;;;24.40;99.90;;;;;;5065726;28;20277;-67
2022/06/11 08:45:22;;;;;;;1.10;1.10;;;24.60;99.90;;;;;;5065441;28;20364;-67
2022/06/11 08:47:54;;;;;;;2.90;1.00;;;24.80;99.90;;;;;;5060891;28;20276;-67
2022/06/11 08:50:28;;;;;;;0.90;0.90;;;24.90;99.90;;;;;;5062338;28;20290;-66
2022/06/11 08:52:56;;;;;;;0.80;0.80;;;24.90;99.90;;;;;;5060371;28;20222;-66
2022/06/11 08:55:29;;;;;;;1.00;1.00;;;25.00;99.90;;;;;;5063358;28;20204;-66
2022/06/11 08:58:01;;;;;;;2.47;1.10;;;25.20;99.90;;;;;;5058434;28;20319;-67
2022/06/11 09:00:35;;;;;;;0.90;0.90;;;25.20;99.90;;;;;;5059308;28;20221;-65
2022/06/11 09:03:15;;;;;;;1.00;1.00;;;25.30;99.90;;;;;;5060326;28;20198;-67
2022/06/11 09:05:55;;;;;;;1.00;1.00;;;25.40;99.90;;;;;;5059361;28;20298;-65
2022/06/11 09:08:36;;;;;;;1.00;1.00;;;25.40;99.90;;;;;;5062747;28;20223;-65
2022/06/11 09:11:14;;;;;;;0.90;0.90;;;25.40;99.90;;;;;;5060497;28;20662;-66
2022/06/11 09:13:59;;;;;;;0.80;0.80;;;25.30;99.90;;;;;;5062612;28;20282;-67
2022/06/11 09:16:41;;;;;;;1.10;1.00;;;25.50;99.90;;;;;;5058107;28;20200;-66
2022/06/11 09:19:36;;;;;;;0.95;0.95;;;25.60;99.90;;;;;;5061458;28;20243;-66
2022/06/11 09:22:14;;;;;;;0.90;0.90;;;25.80;99.90;;;;;;5068186;28;20204;-65
2022/06/11 09:25:04;;;;;;;1.15;1.15;;;25.80;99.90;;;;;;5076263;28;20218;-66
2022/06/11 09:27:37;;;;;;;0.90;0.90;;;25.50;99.90;;;;;;5075703;28;20330;-66
2022/06/11 09:30:08;;;;;;;1.00;1.00;;;25.60;99.90;;;;;;5070772;28;20227;-67
2022/06/11 09:32:44;;;;;;;0.98;0.98;;;25.80;99.90;;;;;;5080931;28;20199;-65
2022/06/11 09:35:17;;;;;;;1.00;1.00;;;25.90;99.90;;;;;;5075677;28;20287;-66
2022/06/11 09:37:55;;;;;;;0.90;0.90;;;26.00;99.90;;;;;;5065666;28;20279;-67
2022/06/11 09:40:34;;;;;;;0.82;0.82;;;26.30;99.90;;;;;;5069498;28;20205;-66
2022/06/11 09:43:24;;;;;;;0.93;0.93;;;26.20;99.90;;;;;;5071340;28;20294;-66
2022/06/11 09:45:55;;;;;;;1.05;1.05;;;26.20;99.90;;;;;;5070457;28;20378;-66
2022/06/11 09:48:34;;;;;;;0.90;0.90;;;26.30;99.90;;;;;;5074916;28;20214;-67
2022/06/11 09:51:09;;;;;;;1.27;1.00;;;26.40;99.90;;;;;;5074838;28;20282;-65
2022/06/11 09:53:48;;;;;;;0.88;0.88;;;26.50;99.90;;;;;;5068609;28;20217;-67
2022/06/11 09:56:22;;;;;;;0.90;0.90;;;26.60;99.90;;;;;;5075425;28;20270;-67
2022/06/11 09:58:57;;;;;;;1.15;1.10;;;26.70;99.90;;;;;;5074178;28;20310;-65
2022/06/11 10:01:31;;;;;;;1.00;1.00;;;26.80;99.90;;;;;;5068471;28;20200;-66
2022/06/11 10:04:05;;;;;;;1.40;1.30;;;26.60;99.90;;;;;;5064975;28;20670;-66
2022/06/11 10:06:38;;;;;;;1.08;1.08;;;26.60;99.90;;;;;;5062460;28;20245;-68
2022/06/11 10:09:14;;;;;;;0.88;0.88;;;26.60;99.90;;;;;;5065914;28;20841;-68
2022/06/11 10:11:48;;;;;;;1.05;0.95;;;26.40;99.90;;;;;;5063979;28;20340;-66
2022/06/11 10:14:29;;;;;;;0.95;0.95;;;26.50;99.90;;;;;;5067053;28;20375;-66
2022/06/11 10:17:03;;;;;;;1.33;1.23;;;26.60;99.90;;;;;;5067591;28;20297;-66
2022/06/11 10:19:36;;;;;;;1.15;1.10;;;26.60;99.90;;;;;;5065323;28;20218;-67
2022/06/11 10:22:10;;;;;;;0.90;0.90;;;26.70;99.90;;;;;;5062317;28;20195;-65
2022/06/11 10:24:40;;;;;;;0.90;0.90;;;27.00;99.90;;;;;;5059064;28;20680;-66
2022/06/11 10:27:12;;;;;;;1.00;1.00;;;27.20;99.90;;;;;;5064540;28;20299;-67
2022/06/11 10:29:46;;;;;;;1.02;1.02;;;27.10;99.90;;;;;;5063035;28;20231;-67
2022/06/11 10:32:16;;;;;;;1.15;1.10;;;27.10;99.90;;;;;;5061374;28;20228;-66
2022/06/11 10:34:48;;;;;;;0.90;0.90;;;27.10;99.90;;;;;;5069256;28;20740;-67
2022/06/11 10:37:22;;;;;;;1.30;1.20;;;27.20;99.90;;;;;;5057023;28;20658;-66
2022/06/11 10:39:56;;;;;;;1.05;1.05;;;27.20;99.90;;;;;;5060698;28;20226;-68
2022/06/11 10:42:30;;;;;;;0.90;0.90;;;27.00;99.90;;;;;;5056903;28;20206;-66
2022/06/11 10:45:00;;;;;;;1.05;1.05;;;27.10;99.90;;;;;;5062043;28;20203;-66
2022/06/11 10:47:34;;;;;;;0.90;0.90;;;27.40;99.90;;;;;;5059895;28;20196;-66
2022/06/11 10:50:18;;;;;;;0.90;0.90;;;27.40;99.90;;;;;;5062380;28;21580;-66
2022/06/11 10:52:49;;;;;;;1.00;1.00;;;27.30;99.90;;;;;;5058632;28;20298;-66
2022/06/11 10:55:23;;;;;;;1.13;1.08;;;27.40;99.90;;;;;;5065040;28;20222;-68
2022/06/11 10:57:52;;;;;;;0.70;0.70;;;27.50;99.90;;;;;;5068654;28;20665;-67
2022/06/11 11:00:26;;;;;;;1.00;1.00;;;27.60;99.90;;;;;;5065843;28;20314;-67
2022/06/11 11:02:59;;;;;;;0.80;0.80;;;27.70;99.90;;;;;;5066803;28;20195;-67
2022/06/11 11:05:26;;;;;;;1.00;1.00;;;27.80;99.90;;;;;;5070589;28;20549;-68
2022/06/11 11:07:57;;;;;;;0.80;0.80;;;27.90;99.90;;;;;;5062695;28;20660;-69
2022/06/11 11:10:40;;;;;;;1.52;1.13;;;27.90;99.90;;;;;;5069928;28;20207;-66
2022/06/11 11:13:15;;;;;;;1.85;1.02;;;27.80;99.90;;;;;;5067527;28;20234;-68
2022/06/11 11:15:52;;;;;;;0.93;0.93;;;27.90;99.90;;;;;;5061883;28;20194;-66
2022/06/11 11:18:22;;;;;;;0.93;0.93;;;27.70;99.90;;;;;;5061423;28;20670;-66
2022/06/11 11:20:53;;;;;;;0.82;0.82;;;27.90;99.90;;;;;;5065748;28;20203;-67
2022/06/11 11:23:25;;;;;;;0.90;0.90;;;27.80;99.90;;;;;;5066259;28;20214;-66
2022/06/11 11:25:55;;;;;;;0.98;0.98;;;27.90;99.90;;;;;;5065522;28;20258;-66
2022/06/11 11:28:26;;;;;;;0.88;0.88;;;27.60;99.90;;;;;;5065898;28;20364;-67
2022/06/11 11:31:08;;;;;;;0.90;0.90;;;27.80;99.90;;;;;;5061504;28;20690;-67
2022/06/11 11:33:37;;;;;;;0.90;0.90;;;27.90;99.90;;;;;;5063039;28;20278;-65
2022/06/11 11:36:20;;;;;;;0.70;0.70;;;28.00;99.90;;;;;;5054710;28;20565;-67
2022/06/11 11:39:29;;;;;;;1.02;1.00;;;28.10;99.90;;;;;;5066586;28;20280;-66
2022/06/11 11:42:11;;;;;;;1.98;1.00;;;28.30;99.90;;;;;;5004876;28;20289;-67
2022/06/11 11:44:40;;;;;;;0.88;0.88;;;28.30;99.90;;;;;;5056072;28;20298;-68
2022/06/11 11:47:15;;;;;;;1.00;1.00;;;28.30;99.90;;;;;;5068109;28;20646;-66
2022/06/11 11:49:47;;;;;;;0.80;0.80;;;28.50;99.90;;;;;;5069398;28;20261;-68
2022/06/11 11:52:16;;;;;;;1.15;1.15;;;28.30;99.90;;;;;;5063124;28;20235;-69
2022/06/11 11:54:57;;;;;;;0.90;0.90;;;28.10;99.90;;;;;;5061717;28;20667;-67
2022/06/11 11:57:28;;;;;;;0.90;0.90;;;28.10;99.90;;;;;;5055598;28;20195;-67
2022/06/11 11:59:59;;;;;;;1.30;0.90;;;28.30;99.90;;;;;;5064906;28;20222;-67
2022/06/11 12:02:34;;;;;;;0.85;0.85;;;28.50;99.90;;;;;;5066778;28;20230;-66
2022/06/11 12:05:10;;;;;;;1.08;0.80;;;28.50;99.90;;;;;;5067338;28;20282;-67
2022/06/11 12:07:40;;;;;;;0.88;0.88;;;28.70;99.90;;;;;;5069079;28;20191;-68
2022/06/11 12:10:22;;;;;;;0.80;0.80;;;28.60;99.90;;;;;;5067552;28;20326;-67
2022/06/11 12:12:51;;;;;;;0.95;0.95;;;28.70;99.90;;;;;;5074542;28;20674;-67
2022/06/11 12:15:22;;;;;;;1.13;0.90;;;28.60;99.90;;;;;;5073205;28;20242;-66
2022/06/11 12:17:53;;;;;;;1.00;1.00;;;28.40;99.90;;;;;;5070893;28;20245;-66
2022/06/11 12:20:34;;;;;;;0.88;0.88;;;28.40;99.90;;;;;;5065976;28;20229;-66
2022/06/11 12:23:08;;;;;;;0.80;0.80;;;28.60;99.90;;;;;;5060593;28;20637;-66
2022/06/11 12:25:41;;;;;;;1.10;1.00;;;28.80;99.90;;;;;;5069660;28;20224;-68
2022/06/11 12:28:13;;;;;;;0.75;0.75;;;28.70;99.90;;;;;;5064979;28;20227;-68
2022/06/11 12:30:40;;;;;;;0.93;0.93;;;28.80;99.90;;;;;;5063133;28;20207;-66
2022/06/11 12:33:12;;;;;;;0.90;0.90;;;28.90;99.90;;;;;;5062056;28;20299;-66
2022/06/11 12:35:47;;;;;;;0.82;0.82;;;28.90;99.90;;;;;;5061739;28;20197;-66
2022/06/11 12:38:21;;;;;;;0.98;0.90;;;28.80;99.90;;;;;;5069509;28;20289;-68
2022/06/11 12:40:54;;;;;;;1.13;1.00;;;28.80;99.90;;;;;;5070292;28;20293;-66
2022/06/11 12:43:35;;;;;;;0.93;0.93;;;28.90;99.90;;;;;;5064060;28;20642;-67
2022/06/11 12:46:15;;;;;;;1.33;0.90;;;28.70;99.90;;;;;;5062226;28;20218;-66
2022/06/11 12:48:50;;;;;;;0.77;0.77;;;28.80;99.90;;;;;;5063011;28;20284;-67
2022/06/11 12:51:25;;;;;;;2.25;0.80;;;29.00;99.90;;;;;;5070845;28;20301;-67
2022/06/11 12:53:59;;;;;;;0.80;0.80;;;29.30;99.90;;;;;;5071436;28;20203;-67
2022/06/11 12:56:52;;;;;;;0.80;0.80;;;29.30;99.90;;;;;;5058669;28;20192;-67
2022/06/11 12:59:31;;;;;;;0.90;0.90;;;29.30;99.90;;;;;;5064773;28;20713;-68
2022/06/11 13:02:19;;;;;;;0.80;0.80;;;29.30;99.90;;;;;;5062814;28;20256;-68
2022/06/11 13:05:18;;;;;;;1.00;1.00;;;29.30;99.90;;;;;;5065316;28;20304;-68
2022/06/11 13:07:51;;;;;;;0.77;0.77;;;29.30;99.90;;;;;;5062381;28;20215;-67
2022/06/11 13:10:39;;;;;;;0.65;0.65;;;29.40;99.90;;;;;;5065319;28;20724;-66
2022/06/11 13:13:17;;;;;;;1.20;0.80;;;29.40;99.90;;;;;;5063667;28;20206;-66